Huvudsida
METAR-TAF:

METAR-TAF

Flygplatser :

Helsingfors-Vanda flygplats

Helsingfors, Finland

latitud: 60-19N, longitud: 024-58E, höjd: 51 m

Aktuellt väderrapport

Denna rapport gjordes för 27 minuter sedan, klockan 12:20 UTC
Vind 10 kt från ost/nordost
Temperatur 19°C
Fuktighet 26%
Tryck 1023 hPa
Sikt 10 km eller mer
Inga moln under 1 500 m eller inga cumulonimbus

METAR: EFHK 251220Z 07010KT CAVOK 19/M01 Q1023 NOSIG

Tid: 15:47 (12:47 UTC)

Väderprognos

Denna rapport gjordes för 1 timme och 18 minuter sedan, klockan 11:29 UTC
Prognos gäller från 25 kl. 12 UTC till 26 kl. 12 UTC
Vind 10 kt från ost/sydost
Sikt 10 km eller mer
Inga moln under 1 500 m eller inga cumulonimbus
Blir
från 25 kl. 14 UTC till 25 kl. 16 UTC
Vind 8 kt från ost/nordost

TAF: EFHK 251129Z 2512/2612 11010KT CAVOK BECMG 2514/2516 07008KT

Aktuella väderrapporter och prognoser från 4000 flygplatser (METAR- och TAF-rapporter).

De tillgängliga stationerna syns som gula och röda prickar på kartan.

För musen över prickarna för att se namnen på stationerna.

Klicka sedan för att få väderrapporter och prognoser.

För att ändra kartan: Klicka på de gröna knapparna med ett svart kors på för att zooma in; den gröna knappen med ett streck på för att zooma ut; eller på de gröna pilarna för angränsande kartor.


METAR-TAF: